Time;durP1;ratioP1;P1;durP2;ratioP2;P2;SDS_P1;SDS_P2;PMS_P1;PMS_P2;Temp;Humidity;BMP_temperature;BMP_pressure;BME280_temperature;BME280_humidity;BME280_pressure;Samples;Min_cycle;Max_cycle;Signal;HPM_P1;HPM_P2
2021/09/27 00:02:07;;;;;;;12.30;7.03;;;;;;;16.14;0.00;31755.91;5109440;27;20042;-67
2021/09/27 00:04:34;;;;;;;11.87;7.03;;;;;;;16.09;0.00;33947.09;5106717;27;20023;-68
2021/09/27 00:07:00;;;;;;;15.47;7.73;;;;;;;16.05;0.00;41967.25;5105120;27;20469;-68
2021/09/27 00:09:32;;;;;;;18.63;8.47;;;;;;;16.00;0.00;46892.09;5106617;27;20094;-68
2021/09/27 00:11:58;;;;;;;;;;;;;;;15.95;0.00;57361.41;5107028;27;20102;-69
2021/09/27 00:14:24;;;;;;;13.73;7.07;;;;;;;15.85;0.00;86551.44;5107986;27;19915;-68
2021/09/27 00:16:49;;;;;;;17.20;8.50;;;;;;;15.76;0.00;93263.25;5106101;27;20107;-68
2021/09/27 00:19:15;;;;;;;15.97;7.80;;;;;;;15.72;0.00;98028.53;5113448;27;20056;-68
2021/09/27 00:21:41;;;;;;;15.20;8.23;;;;;;;15.76;0.00;107899.47;5114942;27;20043;-69
2021/09/27 00:24:06;;;;;;;15.67;8.33;;;;;;;15.79;0.00;108239.84;5108498;27;20106;-68
2021/09/27 00:26:32;;;;;;;16.97;9.20;;;;;;;15.81;0.00;111984.00;5104388;27;20027;-68
2021/09/27 00:28:57;;;;;;;16.17;9.43;;;;;;;15.88;0.00;116749.28;5108467;27;20023;-68
2021/09/27 00:31:23;;;;;;;16.87;9.63;;;;;;;15.90;0.00;117430.03;5102198;27;20058;-68
2021/09/27 00:33:50;;;;;;;17.73;9.67;;;;;;;15.91;0.00;114366.66;5100777;27;20096;-69
2021/09/27 00:36:16;;;;;;;20.57;9.07;;;;;;;15.97;0.00;112324.38;5103566;27;20098;-68
2021/09/27 00:38:42;;;;;;;17.30;9.23;;;;;;;16.02;0.00;107218.72;5111700;27;20547;-68
2021/09/27 00:41:12;;;;;;;19.73;9.93;;;;;;;16.07;0.00;101772.69;5103717;27;20057;-68
2021/09/27 00:43:39;;;;;;;16.73;9.00;;;;;;;16.08;0.00;89519.13;5113343;27;20033;-68
2021/09/27 00:46:08;;;;;;;15.47;7.67;;;;;;;16.10;0.00;76624.66;5108264;27;20273;-68
2021/09/27 00:48:34;;;;;;;12.43;7.63;;;;;;;16.09;0.00;69447.47;5106806;27;20291;-68
2021/09/27 00:51:11;;;;;;;14.30;8.03;;;;;;;16.07;0.00;65203.38;5106230;27;20028;-68
2021/09/27 00:53:51;;;;;;;12.80;7.67;;;;;;;16.06;0.00;59113.81;5102852;27;20019;-68
2021/09/27 00:56:22;;;;;;;19.03;9.70;;;;;;;16.15;0.00;58693.66;5103793;27;20186;-68
2021/09/27 00:58:49;;;;;;;20.23;9.70;;;;;;;16.22;0.00;57544.88;5110142;27;20030;-68
2021/09/27 01:01:15;;;;;;;19.63;10.30;;;;;;;16.24;0.00;38696.44;5109744;27;20034;-72
2021/09/27 01:03:50;;;;;;;17.37;9.63;;;;;;;16.22;0.00;34492.22;5107738;22;20281;-73
2021/09/27 01:07:15;;;;;;;20.70;9.67;;;;;;;16.21;0.00;31888.88;5039251;28;20441;-72
2021/09/27 01:10:28;;;;;;;22.10;11.17;;;;;;;16.24;0.00;31192.16;4976278;28;20480;-71
2021/09/27 01:13:43;;;;;;;16.97;9.53;;;;;;;16.24;0.00;32896.72;4961338;28;20217;-71
2021/09/27 01:16:51;;;;;;;18.53;9.33;;;;;;;16.20;0.00;40627.03;4951277;28;20128;-72
2021/09/27 01:20:03;;;;;;;19.17;10.17;;;;;;;16.27;0.00;43602.69;4951414;28;20050;-71
2021/09/27 01:23:04;;;;;;;21.70;10.47;;;;;;;16.25;0.00;46038.50;4899347;29;20040;-71
2021/09/27 01:25:57;;;;;;;22.80;10.80;;;;;;;16.26;0.00;46791.06;4897837;29;20150;-71
2021/09/27 01:29:12;;;;;;;20.77;11.33;;;;;;;16.23;0.00;43275.59;4888469;29;20494;-71
2021/09/27 01:32:24;;;;;;;22.23;11.20;;;;;;;16.23;0.00;40249.41;4870321;29;20500;-72
2021/09/27 01:35:42;;;;;;;21.57;11.87;;;;;;;16.24;0.00;37289.72;4857511;29;20048;-72
2021/09/27 01:38:28;;;;;;;19.90;11.50;;;;;;;16.20;0.00;33867.31;4834512;29;20057;-72
2021/09/27 01:41:15;;;;;;;23.40;12.40;;;;;;;16.20;0.00;32122.88;4861017;29;20453;-71
2021/09/27 01:43:59;;;;;;;22.40;10.77;;;;;;;16.19;0.00;32944.56;4861026;29;20045;-71
2021/09/27 01:46:33;;;;;;;25.20;11.70;;;;;;;16.15;0.00;34412.47;4879517;29;20108;-71
2021/09/27 01:49:07;;;;;;;21.90;11.70;;;;;;;16.10;0.00;37313.66;4878251;29;20603;-71
2021/09/27 01:52:07;;;;;;;24.60;11.63;;;;;;;16.05;0.00;42233.19;4878892;29;20052;-72
2021/09/27 01:54:44;;;;;;;22.20;11.30;;;;;;;15.99;0.00;50657.53;4879716;29;20280;-71
2021/09/27 01:57:50;;;;;;;22.50;11.27;;;;;;;15.99;0.00;56255.16;4879911;29;20692;-71
2021/09/27 02:00:22;;;;;;;22.40;11.10;;;;;;;16.04;0.00;62020.31;4983698;28;20508;-71
2021/09/27 02:03:27;;;;;;;23.98;11.88;;;;;;;16.05;0.00;61493.78;4985833;28;20088;-72
2021/09/27 02:06:37;;;;;;;21.13;11.37;;;;;;;16.08;0.00;62139.97;4963220;28;20042;-72
2021/09/27 02:09:15;;;;;;;22.17;11.30;;;;;;;16.11;0.00;61477.84;4975785;28;20030;-72
2021/09/27 02:11:46;;;;;;;22.87;10.97;;;;;;;16.17;0.00;55311.16;5017693;28;20026;-71
2021/09/27 02:14:59;;;;;;;22.83;12.40;;;;;;;16.18;0.00;49939.56;5017224;28;20064;-72
2021/09/27 02:17:59;;;;;;;21.08;11.07;;;;;;;16.16;0.00;44966.84;4999732;28;20287;-72
2021/09/27 02:20:38;;;;;;;26.17;11.40;;;;;;;16.15;0.00;44110.59;5004752;28;20037;-71
2021/09/27 02:23:21;;;;;;;21.20;11.17;;;;;;;16.09;0.00;43937.72;5017448;28;20017;-71
2021/09/27 02:25:49;;;;;;;19.93;10.93;;;;;;;16.03;0.00;45216.81;5020571;28;20033;-72
2021/09/27 02:28:20;;;;;;;19.40;11.20;;;;;;;16.01;0.00;48530.19;5020112;28;20053;-72
2021/09/27 02:31:05;;;;;;;23.57;11.87;;;;;;;16.02;0.00;54226.19;5021837;28;20034;-71
2021/09/27 02:34:10;;;;;;;24.33;11.10;;;;;;;16.08;0.00;58523.47;5020489;28;20526;-73
2021/09/27 02:37:04;;;;;;;24.60;12.00;;;;;;;16.08;0.00;59802.53;5014998;28;20049;-72
2021/09/27 02:39:34;;;;;;;22.90;11.63;;;;;;;16.06;0.00;59065.94;5020180;28;20052;-72
2021/09/27 02:42:10;;;;;;;21.00;11.17;;;;;;;16.08;0.00;53603.94;5021163;28;20017;-71
2021/09/27 02:44:36;;;;;;;21.50;10.90;;;;;;;16.10;0.00;50551.19;5020382;28;20660;-72
2021/09/27 02:47:05;;;;;;;23.87;11.20;;;;;;;16.12;0.00;48780.16;5020837;28;20274;-72
2021/09/27 02:49:42;;;;;;;21.30;10.93;;;;;;;16.20;0.00;41584.34;5020134;28;20035;-72
2021/09/27 02:52:08;;;;;;;22.93;11.40;;;;;;;16.22;0.00;34824.63;5020878;28;20029;-72
2021/09/27 02:54:39;;;;;;;21.00;10.57;;;;;;;16.27;0.00;29564.72;5020577;28;20514;-71
2021/09/27 02:57:52;;;;;;;21.87;10.80;;;;;;;16.28;0.00;24182.50;5020828;28;20530;-71
2021/09/27 03:01:13;;;;;;;21.93;10.37;;;;;;;16.25;0.00;22544.41;4939052;28;20508;-72
2021/09/27 03:04:03;;;;;;;24.23;11.30;;;;;;;16.18;0.00;24405.84;4860195;29;20048;-72
2021/09/27 03:07:17;;;;;;;22.33;11.10;;;;;;;16.13;0.00;29673.75;4813987;29;20046;-72
2021/09/27 03:10:19;;;;;;;20.87;10.40;;;;;;;16.08;0.00;36800.41;4828770;29;20035;-72
2021/09/27 03:12:53;;;;;;;25.30;12.00;;;;;;;16.05;0.00;43461.72;4826901;29;20046;-72
2021/09/27 03:16:11;;;;;;;23.83;11.27;;;;;;;16.07;0.00;50035.28;4825171;29;20045;-72
2021/09/27 03:19:27;;;;;;;25.13;10.90;;;;;;;16.04;0.00;50152.28;4734624;30;20279;-72
2021/09/27 03:22:40;;;;;;;22.73;11.60;;;;;;;15.96;0.00;50976.66;4729845;30;20391;-72
2021/09/27 03:25:32;;;;;;;21.73;10.27;;;;;;;15.91;0.00;55999.88;4696450;30;20460;-72
2021/09/27 03:28:41;;;;;;;23.90;11.13;;;;;;;15.89;0.00;63740.81;4700407;30;20046;-70
2021/09/27 03:31:28;;;;;;;25.20;11.93;;;;;;;15.89;0.00;71739.69;4662635;30;20054;-70
2021/09/27 03:34:43;;;;;;;23.13;11.10;;;;;;;15.89;0.00;76818.78;4711539;30;20518;-70
2021/09/27 03:37:57;;;;;;;26.50;11.37;;;;;;;15.88;0.00;78052.63;4734634;30;20571;-70
2021/09/27 03:41:06;;;;;;;25.27;11.03;;;;;;;15.87;0.00;79004.63;4704376;30;20049;-73
2021/09/27 03:44:01;;;;;;;26.30;12.17;;;;;;;15.92;0.00;90569.50;4686040;30;20060;-73
2021/09/27 03:47:01;;;;;;;27.80;11.47;;;;;;;15.97;0.00;89933.94;4687498;30;20414;-71
2021/09/27 03:50:08;;;;;;;26.77;12.40;;;;;;;16.02;0.00;85445.22;4690296;30;20096;-69
2021/09/27 03:53:00;;;;;;;23.83;11.53;;;;;;;16.02;0.00;70029.84;4686264;30;20045;-70
2021/09/27 03:55:41;;;;;;;23.25;12.10;;;;;;;-145.18;0.00;102943.50;4797713;29;20057;-71
2021/09/27 03:58:26;;;;;;;23.20;10.20;;;;;;;-145.18;0.00;102943.50;4807442;29;20043;-71
2021/09/27 04:01:04;;;;;;;26.90;12.37;;;;;;;-145.18;0.00;102943.50;4818019;29;20105;-71
2021/09/27 04:04:21;;;;;;;24.70;11.70;;;;;;;-145.18;0.00;102943.50;4841148;29;20257;-72
2021/09/27 04:07:07;;;;;;;25.83;12.67;;;;;;;-145.18;0.00;102943.50;4818692;29;20048;-72
2021/09/27 04:09:47;;;;;;;24.80;11.57;;;;;;;-145.18;0.00;102943.50;4864464;29;20201;-71
2021/09/27 04:12:36;;;;;;;31.37;12.57;;;;;;;-145.18;0.00;102943.50;4862118;29;20923;-71
2021/09/27 04:15:48;;;;;;;28.17;12.40;;;;;;;-145.18;0.00;102943.50;4941187;28;20042;-72
2021/09/27 04:18:39;;;;;;;28.23;12.60;;;;;;;-145.18;0.00;102943.50;4919859;28;20050;-72
2021/09/27 04:21:29;;;;;;;34.57;13.70;;;;;;;-145.18;0.00;102943.50;4950769;28;20047;-72
2021/09/27 04:24:38;;;;;;;29.00;13.30;;;;;;;-145.18;0.00;102943.50;4899651;29;20044;-73
2021/09/27 04:28:02;;;;;;;33.07;13.87;;;;;;;-145.18;0.00;102943.50;4882542;29;20052;-72
2021/09/27 04:31:12;;;;;;;37.50;13.53;;;;;;;-145.18;0.00;102943.50;4843057;29;20101;-73
2021/09/27 04:34:29;;;;;;;36.37;14.57;;;;;;;-145.18;0.00;102943.50;4834970;29;20282;-71
2021/09/27 04:36:56;;;;;;;39.80;15.10;;;;;;;-145.18;0.00;102943.50;4804390;29;20034;-71
2021/09/27 04:39:26;;;;;;;43.70;15.53;;;;;;;-145.18;0.00;102943.50;4806738;29;20321;-72
2021/09/27 04:42:39;;;;;;;42.07;15.60;;;;;;;-145.18;0.00;102943.50;4810989;29;20111;-71
2021/09/27 04:45:52;;;;;;;40.25;15.10;;;;;;;-145.18;0.00;102943.50;4734997;30;20697;-71
2021/09/27 04:49:03;;;;;;;46.97;17.30;;;;;;;-145.18;0.00;102943.50;4734059;30;20083;-71
2021/09/27 04:52:21;;;;;;;54.07;20.03;;;;;;;-145.18;0.00;102943.50;4720236;30;20052;-72
2021/09/27 04:55:25;;;;;;;53.27;16.90;;;;;;;-145.18;0.00;102943.50;4633123;30;20244;-72
2021/09/27 04:58:22;;;;;;;51.50;16.43;;;;;;;-145.18;0.00;102943.50;4632820;30;20055;-71
2021/09/27 05:01:28;;;;;;;53.20;17.33;;;;;;;-145.18;0.00;102943.50;4686624;30;20113;-71
2021/09/27 05:04:38;;;;;;;58.30;17.23;;;;;;;-145.18;0.00;102943.50;4757365;30;20582;-71
2021/09/27 05:07:44;;;;;;;53.27;17.63;;;;;;;-145.18;0.00;102943.50;4761982;30;20050;-71
2021/09/27 05:10:57;;;;;;;54.03;17.60;;;;;;;-145.18;0.00;102943.50;4784615;29;20138;-71
2021/09/27 05:14:02;;;;;;;53.87;17.47;;;;;;;-145.18;0.00;102943.50;4798489;29;20047;-72
2021/09/27 05:20:53;;;;;;;55.40;17.97;;;;;;;-145.18;0.00;102943.50;4786887;29;20058;-72
2021/09/27 05:24:06;;;;;;;59.63;18.33;;;;;;;-145.18;0.00;102943.50;4783417;29;20126;-72
2021/09/27 05:26:48;;;;;;;56.43;18.27;;;;;;;-145.18;0.00;102943.50;4793994;29;20209;-72
2021/09/27 05:29:57;;;;;;;63.63;17.80;;;;;;;-145.18;0.00;102943.50;4798300;29;20049;-71
2021/09/27 05:32:42;;;;;;;56.93;17.93;;;;;;;-145.18;0.00;102943.50;4780100;29;20047;-71
2021/09/27 05:35:44;;;;;;;59.47;17.73;;;;;;;-145.18;0.00;102943.50;4787968;29;20133;-71
2021/09/27 05:38:42;;;;;;;62.73;18.03;;;;;;;-145.18;0.00;102943.50;4788930;29;20422;-71
2021/09/27 05:41:27;;;;;;;60.80;18.17;;;;;;;-145.18;0.00;102943.50;4914615;29;20051;-71
2021/09/27 05:44:48;;;;;;;65.30;18.60;;;;;;;-145.18;0.00;102943.50;4924381;29;20062;-71
2021/09/27 05:47:49;;;;;;;55.37;17.37;;;;;;;-145.18;0.00;102943.50;4934428;29;20473;-71
2021/09/27 05:50:53;;;;;;;48.47;16.60;;;;;;;-145.18;0.00;102943.50;4930177;29;20130;-71
2021/09/27 05:54:03;;;;;;;51.27;17.50;;;;;;;-145.18;0.00;102943.50;4926669;29;20039;-71
2021/09/27 05:57:33;;;;;;;57.10;16.80;;;;;;;-145.18;0.00;102943.50;4889018;29;20046;-71
2021/09/27 06:00:16;;;;;;;55.90;17.17;;;;;;;-145.18;0.00;102943.50;4863891;29;20282;-71
2021/09/27 06:03:38;;;;;;;55.53;18.57;;;;;;;-145.18;0.00;102943.50;4865030;29;20041;-71
2021/09/27 06:06:47;;;;;;;53.33;17.08;;;;;;;-145.18;0.00;102943.50;4837285;29;20416;-71
2021/09/27 06:09:39;;;;;;;47.07;15.73;;;;;;;-145.18;0.00;102943.50;4860831;29;20040;-71
2021/09/27 06:12:23;;;;;;;43.23;16.00;;;;;;;-145.18;0.00;102943.50;4883890;29;20040;-71
2021/09/27 06:14:52;;;;;;;44.63;15.93;;;;;;;-145.18;0.00;102943.50;4883928;29;20040;-71
2021/09/27 06:18:11;;;;;;;38.40;15.63;;;;;;;-145.18;0.00;102943.50;4888729;29;20044;-71
2021/09/27 06:21:02;;;;;;;33.53;13.77;;;;;;;-145.18;0.00;102943.50;4872484;29;20549;-71
2021/09/27 06:24:07;;;;;;;36.17;14.87;;;;;;;-145.18;0.00;102943.50;4883572;29;20075;-70
2021/09/27 06:26:44;;;;;;;29.93;14.00;;;;;;;-145.18;0.00;102943.50;4828161;29;20046;-71
2021/09/27 06:29:36;;;;;;;27.17;13.17;;;;;;;-145.18;0.00;102943.50;4826975;29;20042;-71
2021/09/27 06:32:29;;;;;;;25.70;11.77;;;;;;;-145.18;0.00;102943.50;4829304;29;20193;-70
2021/09/27 06:35:00;;;;;;;25.43;12.10;;;;;;;-145.18;0.00;102943.50;4876226;29;20036;-70
2021/09/27 06:37:27;;;;;;;19.40;10.10;;;;;;;-145.18;0.00;102943.50;4934406;29;20039;-71
2021/09/27 06:39:54;;;;;;;19.90;10.67;;;;;;;-145.18;0.00;102943.50;4939701;29;20186;-72
2021/09/27 06:42:20;;;;;;;19.43;9.83;;;;;;;-145.18;0.00;102943.50;4940249;29;20433;-72
2021/09/27 06:44:46;;;;;;;20.23;9.50;;;;;;;-145.18;0.00;102943.50;4940498;29;20508;-72
2021/09/27 06:47:13;;;;;;;17.55;9.20;;;;;;;-145.18;0.00;102943.50;4940409;29;20034;-72
2021/09/27 06:49:39;;;;;;;19.15;9.85;;;;;;;-145.18;0.00;102943.50;4930412;29;20073;-72
2021/09/27 06:52:06;;;;;;;20.25;9.88;;;;;;;-145.18;0.00;102943.50;4939944;29;20640;-72
2021/09/27 06:54:31;;;;;;;16.77;9.15;;;;;;;-145.18;0.00;102943.50;4929100;29;20030;-72
2021/09/27 06:56:59;;;;;;;17.35;8.55;;;;;;;-145.18;0.00;102943.50;4939765;29;20599;-72
2021/09/27 06:59:25;;;;;;;17.15;8.23;;;;;;;-145.18;0.00;102943.50;4932913;29;20548;-72
2021/09/27 07:01:59;;;;;;;17.63;8.77;;;;;;;-145.18;0.00;102943.50;4972339;28;20036;-72
2021/09/27 07:04:25;;;;;;;17.67;8.60;;;;;;;-145.18;0.00;102943.50;5020972;28;20057;-72
2021/09/27 07:06:50;;;;;;;14.43;7.72;;;;;;;-145.18;0.00;102943.50;5021058;28;20086;-71
2021/09/27 07:09:17;;;;;;;12.70;7.30;;;;;;;-145.18;0.00;102943.50;5020381;28;20037;-73
2021/09/27 07:11:43;;;;;;;16.45;7.40;;;;;;;-145.18;0.00;102943.50;5020137;28;20112;-71
2021/09/27 07:14:10;;;;;;;11.43;6.57;;;;;;;-145.18;0.00;102943.50;5021401;28;20030;-71
2021/09/27 07:16:36;;;;;;;16.52;7.78;;;;;;;-145.18;0.00;102943.50;5020788;28;20025;-71
2021/09/27 07:19:05;;;;;;;15.85;6.93;;;;;;;-145.18;0.00;102943.50;5019510;28;20317;-71
2021/09/27 07:21:31;;;;;;;12.68;7.00;;;;;;;-145.18;0.00;102943.50;5021116;28;20130;-71
2021/09/27 07:23:56;;;;;;;13.20;7.03;;;;;;;-145.18;0.00;102943.50;5020457;28;20213;-71
2021/09/27 07:26:22;;;;;;;15.73;7.03;;;;;;;-145.18;0.00;102943.50;5020276;28;20399;-71
2021/09/27 07:28:52;;;;;;;13.82;7.43;;;;;;;-145.18;0.00;102943.50;5021000;28;20057;-71
2021/09/27 07:31:18;;;;;;;13.55;6.90;;;;;;;-145.18;0.00;102943.50;5021188;28;20021;-71
2021/09/27 07:33:44;;;;;;;14.95;8.10;;;;;;;-145.18;0.00;102943.50;5020725;28;20028;-71
2021/09/27 07:36:09;;;;;;;14.63;7.60;;;;;;;-145.18;0.00;102943.50;5020882;28;20045;-71
2021/09/27 07:38:36;;;;;;;10.98;6.50;;;;;;;-145.18;0.00;102943.50;5020891;28;20347;-73
2021/09/27 07:41:02;;;;;;;13.52;7.05;;;;;;;-145.18;0.00;102943.50;5020664;28;20116;-73
2021/09/27 07:43:28;;;;;;;12.20;6.53;;;;;;;-145.18;0.00;102943.50;5020796;28;20045;-72
2021/09/27 07:45:54;;;;;;;13.20;6.72;;;;;;;-145.18;0.00;102943.50;5021632;28;20115;-73
2021/09/27 07:48:20;;;;;;;12.18;6.47;;;;;;;-145.18;0.00;102943.50;5021042;28;20255;-72
2021/09/27 07:50:48;;;;;;;13.00;6.38;;;;;;;-145.18;0.00;102943.50;5021018;28;20048;-72
2021/09/27 07:53:14;;;;;;;10.85;6.15;;;;;;;-145.18;0.00;102943.50;5018449;28;20383;-73
2021/09/27 07:55:41;;;;;;;10.85;5.93;;;;;;;-145.18;0.00;102943.50;5020145;28;20032;-74
2021/09/27 07:58:06;;;;;;;14.07;6.35;;;;;;;-145.18;0.00;102943.50;5020566;28;20029;-76
2021/09/27 08:00:32;;;;;;;11.65;5.65;;;;;;;-145.18;0.00;102943.50;5020522;28;20025;-75
2021/09/27 08:02:58;;;;;;;11.18;6.18;;;;;;;-145.18;0.00;102943.50;5009183;28;20183;-76
2021/09/27 08:05:29;;;;;;;10.95;6.03;;;;;;;-145.18;0.00;102943.50;5019012;28;20288;-75
2021/09/27 08:07:54;;;;;;;13.75;6.70;;;;;;;-145.18;0.00;102943.50;5020108;28;20495;-76
2021/09/27 08:10:22;;;;;;;12.43;6.30;;;;;;;-145.18;0.00;102943.50;5020083;28;20035;-77
2021/09/27 08:12:48;;;;;;;10.40;6.00;;;;;;;-145.18;0.00;102943.50;5019781;28;20025;-76
2021/09/27 08:15:23;;;;;;;11.43;6.35;;;;;;;-145.18;0.00;102943.50;5019862;28;20234;-73
2021/09/27 08:17:51;;;;;;;12.60;6.95;;;;;;;-145.18;0.00;102943.50;5021235;28;20040;-72
2021/09/27 08:20:20;;;;;;;12.85;7.55;;;;;;;-145.18;0.00;102943.50;5020394;28;20101;-72
2021/09/27 08:22:46;;;;;;;16.08;7.40;;;;;;;-145.18;0.00;102943.50;5018480;28;20040;-72
2021/09/27 08:25:12;;;;;;;12.50;6.55;;;;;;;-145.18;0.00;102943.50;5019943;28;20340;-72
2021/09/27 08:27:38;;;;;;;17.27;7.50;;;;;;;-145.18;0.00;102943.50;5020183;28;20387;-73
2021/09/27 08:30:08;;;;;;;12.07;7.03;;;;;;;-145.18;0.00;102943.50;5020259;28;20112;-76
2021/09/27 08:32:33;;;;;;;11.52;6.43;;;;;;;-145.18;0.00;102943.50;5019117;28;20042;-77
2021/09/27 08:34:59;;;;;;;10.68;5.97;;;;;;;-145.18;0.00;102943.50;5019498;28;20101;-76
2021/09/27 08:37:24;;;;;;;12.52;5.68;;;;;;;-145.18;0.00;102943.50;5020254;28;20029;-78
2021/09/27 08:39:51;;;;;;;10.07;5.18;;;;;;;-145.18;0.00;102943.50;5019724;28;20597;-78
2021/09/27 08:42:25;;;;;;;12.27;5.22;;;;;;;-145.18;0.00;102943.50;5012637;28;20030;-77
2021/09/27 08:45:11;;;;;;;12.57;5.18;;;;;;;-145.18;0.00;102943.50;5006474;28;20161;-78
2021/09/27 08:47:51;;;;;;;8.10;4.82;;;;;;;-145.18;0.00;102943.50;5019461;28;20021;-77
2021/09/27 08:50:39;;;;;;;9.98;5.20;;;;;;;-145.18;0.00;102943.50;5020347;28;20021;-75
2021/09/27 08:53:15;;;;;;;9.57;5.45;;;;;;;-145.18;0.00;102943.50;5019513;28;20025;-75
2021/09/27 08:55:41;;;;;;;9.93;4.88;;;;;;;-145.18;0.00;102943.50;5019564;28;20410;-74
2021/09/27 08:58:40;;;;;;;10.20;4.53;;;;;;;-145.18;0.00;102943.50;5019434;28;20044;-74
2021/09/27 09:01:12;;;;;;;9.40;4.95;;;;;;;-145.18;0.00;102943.50;5004366;28;20497;-73
2021/09/27 09:04:04;;;;;;;8.50;4.60;;;;;;;-145.18;0.00;102943.50;5019052;28;20345;-73
2021/09/27 09:06:39;;;;;;;11.55;4.70;;;;;;;-145.18;0.00;102943.50;5019030;28;20033;-72
2021/09/27 09:09:23;;;;;;;10.95;4.53;;;;;;;-145.18;0.00;102943.50;5019216;28;20602;-72
2021/09/27 09:12:01;;;;;;;9.20;4.60;;;;;;;-145.18;0.00;102943.50;5018928;28;20025;-72
2021/09/27 09:15:13;;;;;;;11.45;4.85;;;;;;;-145.18;0.00;102943.50;5017071;28;20033;-71
2021/09/27 09:17:56;;;;;;;9.90;4.90;;;;;;;-145.18;0.00;102943.50;4956282;28;20050;-72
2021/09/27 09:20:26;;;;;;;8.70;4.85;;;;;;;-145.18;0.00;102943.50;4957106;28;20046;-71
2021/09/27 09:22:52;;;;;;;10.00;5.55;;;;;;;-145.18;0.00;102943.50;4946769;28;20039;-71
2021/09/27 09:25:38;;;;;;;10.73;5.25;;;;;;;-145.18;0.00;102943.50;4956565;28;20034;-71
2021/09/27 09:28:06;;;;;;;9.98;5.47;;;;;;;-145.18;0.00;102943.50;4956722;28;20275;-71
2021/09/27 09:30:52;;;;;;;9.57;5.13;;;;;;;-145.18;0.00;102943.50;4956981;28;20035;-71
2021/09/27 09:34:04;;;;;;;11.55;5.25;;;;;;;-145.18;0.00;102943.50;4944965;28;20131;-71
2021/09/27 09:36:39;;;;;;;10.82;5.25;;;;;;;-145.18;0.00;102943.50;4860331;29;20472;-71
2021/09/27 09:39:22;;;;;;;9.65;5.30;;;;;;;-145.18;0.00;102943.50;4862140;29;20161;-71
2021/09/27 09:42:01;;;;;;;11.95;5.28;;;;;;;-145.18;0.00;102943.50;4862224;29;20040;-70
2021/09/27 09:44:43;;;;;;;9.85;5.10;;;;;;;-145.18;0.00;102943.50;4862212;29;20057;-71
2021/09/27 09:47:29;;;;;;;11.50;5.20;;;;;;;-145.18;0.00;102943.50;4861833;29;20050;-71
2021/09/27 09:50:02;;;;;;;10.95;5.15;;;;;;;-145.18;0.00;102943.50;4862287;29;20033;-71
2021/09/27 09:52:59;;;;;;;10.88;5.93;;;;;;;-145.18;0.00;102943.50;4912115;29;20044;-70
2021/09/27 09:55:39;;;;;;;12.70;5.72;;;;;;;-145.18;0.00;102943.50;4916785;29;20047;-70
2021/09/27 09:58:14;;;;;;;10.93;5.90;;;;;;;-145.18;0.00;102943.50;4918011;29;20051;-71
2021/09/27 10:00:58;;;;;;;11.48;5.75;;;;;;;-145.18;0.00;102943.50;4918416;29;20512;-70
2021/09/27 10:03:38;;;;;;;11.00;5.68;;;;;;;-145.18;0.00;102943.50;4918325;29;20411;-71
2021/09/27 10:06:08;;;;;;;10.38;5.65;;;;;;;-145.18;0.00;102943.50;4921826;28;20044;-70
2021/09/27 10:08:35;;;;;;;10.40;4.72;;;;;;;-145.18;0.00;102943.50;5018282;28;20099;-71
2021/09/27 10:11:08;;;;;;;7.82;4.53;;;;;;;-145.18;0.00;102943.50;5019311;28;20412;-71
2021/09/27 10:13:54;;;;;;;12.10;5.38;;;;;;;-145.18;0.00;102943.50;5018147;28;20030;-71
2021/09/27 10:16:53;;;;;;;9.55;5.22;;;;;;;-145.18;0.00;102943.50;5017142;28;20281;-71
2021/09/27 10:19:32;;;;;;;8.45;4.80;;;;;;;-145.18;0.00;102943.50;4929167;28;20510;-71
2021/09/27 10:22:19;;;;;;;10.02;4.88;;;;;;;-145.18;0.00;102943.50;5017603;28;20268;-71
2021/09/27 10:24:51;;;;;;;10.10;4.65;;;;;;;-145.18;0.00;102943.50;5018100;28;20226;-71
2021/09/27 10:27:41;;;;;;;9.48;4.82;;;;;;;-145.18;0.00;102943.50;5018542;28;20064;-70
2021/09/27 10:30:17;;;;;;;8.00;4.53;;;;;;;-145.18;0.00;102943.50;5018390;28;20293;-70
2021/09/27 10:32:53;;;;;;;7.50;4.40;;;;;;;-145.18;0.00;102943.50;5017857;28;20033;-70
2021/09/27 10:35:40;;;;;;;9.55;4.65;;;;;;;-145.18;0.00;102943.50;5018486;28;20041;-71
2021/09/27 10:38:10;;;;;;;9.98;4.65;;;;;;;-145.18;0.00;102943.50;5018007;28;20045;-71
2021/09/27 10:40:38;;;;;;;8.98;4.30;;;;;;;-145.18;0.00;102943.50;5018348;28;20468;-70
2021/09/27 10:43:07;;;;;;;7.53;4.00;;;;;;;-145.18;0.00;102943.50;5018025;28;20053;-70
2021/09/27 10:45:37;;;;;;;8.90;4.25;;;;;;;-145.18;0.00;102943.50;5019482;28;20230;-71
2021/09/27 10:48:05;;;;;;;6.93;3.65;;;;;;;-145.18;0.00;102943.50;5021695;28;20694;-70
2021/09/27 10:50:39;;;;;;;9.23;3.55;;;;;;;-145.18;0.00;102943.50;5021278;28;20118;-69
2021/09/27 10:53:38;;;;;;;7.63;3.92;;;;;;;-145.18;0.00;102943.50;5021664;28;20040;-71
2021/09/27 10:56:32;;;;;;;9.75;4.40;;;;;;;-145.18;0.00;102943.50;4959245;28;20424;-70
2021/09/27 10:59:15;;;;;;;7.38;3.75;;;;;;;-145.18;0.00;102943.50;4958952;28;20045;-70
2021/09/27 11:01:51;;;;;;;9.23;4.18;;;;;;;-145.18;0.00;102943.50;4959736;28;20043;-71
2021/09/27 11:04:32;;;;;;;7.85;3.70;;;;;;;-145.18;0.00;102943.50;4959465;28;20047;-70
2021/09/27 11:07:19;;;;;;;8.10;4.40;;;;;;;-145.18;0.00;102943.50;4958198;28;20126;-71
2021/09/27 11:09:45;;;;;;;13.63;4.88;;;;;;;-145.18;0.00;102943.50;4959310;28;20035;-70
2021/09/27 11:12:43;;;;;;;10.68;4.45;;;;;;;-145.18;0.00;102943.50;4959430;28;20058;-71
2021/09/27 11:15:41;;;;;;;9.20;4.90;;;;;;;-145.18;0.00;102943.50;4954591;28;20072;-71
2021/09/27 11:18:28;;;;;;;8.90;4.65;;;;;;;-145.18;0.00;102943.50;4944469;28;20548;-71
2021/09/27 11:21:19;;;;;;;9.73;5.00;;;;;;;-145.18;0.00;102943.50;4959443;28;20031;-71
2021/09/27 11:23:46;;;;;;;7.05;4.15;;;;;;;-145.18;0.00;102943.50;4958814;28;20022;-71
2021/09/27 11:26:34;;;;;;;8.32;4.53;;;;;;;-145.18;0.00;102943.50;4956591;28;20211;-70
2021/09/27 11:29:20;;;;;;;8.80;4.63;;;;;;;-145.18;0.00;102943.50;4959375;28;20389;-70
2021/09/27 11:31:47;;;;;;;10.35;4.55;;;;;;;-145.18;0.00;102943.50;4958912;28;20046;-70
2021/09/27 11:34:42;;;;;;;7.47;4.65;;;;;;;-145.18;0.00;102943.50;5015179;28;20045;-70
2021/09/27 11:37:17;;;;;;;8.13;4.50;;;;;;;-145.18;0.00;102943.50;5018206;28;20112;-70
2021/09/27 11:39:53;;;;;;;9.10;5.03;;;;;;;-145.18;0.00;102943.50;5020582;28;20261;-71
2021/09/27 11:42:32;;;;;;;7.97;4.85;;;;;;;-145.18;0.00;102943.50;5020458;28;20491;-71
2021/09/27 11:45:40;;;;;;;9.40;5.47;;;;;;;-145.18;0.00;102943.50;5008841;28;20159;-71
2021/09/27 11:48:33;;;;;;;7.47;4.60;;;;;;;-145.18;0.00;102943.50;5014500;28;20349;-71
2021/09/27 11:51:37;;;;;;;9.63;5.35;;;;;;;-145.18;0.00;102943.50;5013045;28;20053;-70
2021/09/27 11:54:35;;;;;;;8.95;5.47;;;;;;;-145.18;0.00;102943.50;4969876;28;20461;-71
2021/09/27 11:57:50;;;;;;;7.43;4.45;;;;;;;-145.18;0.00;102943.50;5008444;28;20239;-70
2021/09/27 12:00:25;;;;;;;8.05;4.90;;;;;;;-145.18;0.00;102943.50;4996049;28;20068;-71
2021/09/27 12:03:11;;;;;;;9.48;4.60;;;;;;;-145.18;0.00;102943.50;5019694;28;20033;-71
2021/09/27 12:06:16;;;;;;;11.85;4.65;;;;;;;-145.18;0.00;102943.50;5017902;28;20045;-71
2021/09/27 12:09:07;;;;;;;7.55;4.97;;;;;;;-145.18;0.00;102943.50;4958319;28;20182;-71
2021/09/27 12:11:35;;;;;;;7.75;4.82;;;;;;;-145.18;0.00;102943.50;4958421;28;20038;-71
2021/09/27 12:14:05;;;;;;;7.90;4.95;;;;;;;-145.18;0.00;102943.50;4958011;28;20057;-71
2021/09/27 12:16:36;;;;;;;8.98;4.50;;;;;;;-145.18;0.00;102943.50;4957734;28;20046;-70
2021/09/27 12:19:39;;;;;;;9.38;5.40;;;;;;;-145.18;0.00;102943.50;4958163;28;20117;-70
2021/09/27 12:22:10;;;;;;;9.10;5.35;;;;;;;-145.18;0.00;102943.50;4953797;28;20031;-70
2021/09/27 12:24:39;;;;;;;8.35;4.53;;;;;;;-145.18;0.00;102943.50;4958027;28;20035;-70
2021/09/27 12:27:26;;;;;;;9.55;5.22;;;;;;;-145.18;0.00;102943.50;4957838;28;20041;-70
2021/09/27 12:30:08;;;;;;;9.07;4.90;;;;;;;-145.18;0.00;102943.50;4957041;28;20035;-70
2021/09/27 12:32:45;;;;;;;8.10;4.60;;;;;;;-145.18;0.00;102943.50;4957772;28;20551;-70
2021/09/27 12:35:46;;;;;;;7.70;4.82;;;;;;;-145.18;0.00;102943.50;4946364;28;20644;-70